Fehn Heaven — V2EI8 — position and weather

sailwx.info

Track history (hours):
 
Tides and Currents Weather Stations Pressure Air Temp Water Temp Dewpoint Dewpoint Depression Visibility Wind Speed Wind Dir Waves Ship Positions

Fehn Heaven

Last reported at 2017-Oct-23 02:23 UTC. Time now 2017-Oct-23 02:46 UTC.
Position N 39°23' W 009°47'.

Length 89 m; draft 3.6 m.

Type: Ship. MMSI: 305443000.

Date/timePositionNaut miles runAvg speedWind from/ knotsBaromVisibWave heightAir tempDewpointWater temp
2017-Oct-23 02:23N 39°23' W 009°47'2 6.3
2017-Oct-23 02:00N 39°20' W 009°47'3 6.3
2017-Oct-23 01:30N 39°17' W 009°48'4 7.4
2017-Oct-23 01:00N 39°14' W 009°48'3 6.9
2017-Oct-23 00:31N 39°10' W 009°49'3 6.6
2017-Oct-23 00:01N 39°07' W 009°50'4 7.5
2017-Oct-22 23:30N 39°03' W 009°50'3 6.6
2017-Oct-22 23:00N 38°60' W 009°50'3 6.7
2017-Oct-22 22:30N 38°57' W 009°50'3 6.1
2017-Oct-22 22:00N 38°54' W 009°51'3 6.0
2017-Oct-22 21:30N 38°51' W 009°51'3 5.8
2017-Oct-22 21:01N 38°48' W 009°51'3 5.8
2017-Oct-22 20:31N 38°45' W 009°51'2 5.0
2017-Oct-22 20:01N 38°42' W 009°50'2 4.9
2017-Oct-22 19:30N 38°40' W 009°49'2 4.6
2017-Oct-22 19:01N 38°38' W 009°49'2 4.4
2017-Oct-22 18:30N 38°36' W 009°49'2 4.4
2017-Oct-22 18:00N 38°33' W 009°48'2 4.2
2017-Oct-22 17:30N 38°31' W 009°48'2 4.2
2017-Oct-22 17:01N 38°29' W 009°48'2 4.0
2017-Oct-22 16:31N 38°27' W 009°47'2 3.9
2017-Oct-22 16:00N 38°25' W 009°47'2 4.3
2017-Oct-22 15:31N 38°23' W 009°46'2 4.4
2017-Oct-22 15:00N 38°21' W 009°46'2 4.3
2017-Oct-22 14:30N 38°19' W 009°45'2 4.4
2017-Oct-22 14:00N 38°17' W 009°44'2 4.4
2017-Oct-22 13:31N 38°15' W 009°42'2 4.1
2017-Oct-22 12:59N 38°13' W 009°41'2 4.4
2017-Oct-22 12:30N 38°11' W 009°40'2 4.6
2017-Oct-22 11:59N 38°09' W 009°40'2 4.7
2017-Oct-22 11:30N 38°07' W 009°39'5 4.8
2017-Oct-22 10:25N 38°01' W 009°38'2 4.7
2017-Oct-22 09:58N 37°59' W 009°38'2 4.7
2017-Oct-22 09:27N 37°57' W 009°38'5 4.7
2017-Oct-22 08:19N 37°52' W 009°36'1 4.8
2017-Oct-22 08:00N 37°50' W 009°36'2 4.7
2017-Oct-22 07:30N 37°48' W 009°35'2 4.3
2017-Oct-22 07:00N 37°46' W 009°35'5 4.2
2017-Oct-22 05:52N 37°41' W 009°34'2 4.2
2017-Oct-22 05:29N 37°40' W 009°33'2 3.8
2017-Oct-22 04:53N 37°38' W 009°32'  
2017-Oct-14 04:22N 36°06' W 008°58'611.1
2017-Oct-14 03:52N 36°12' W 008°59'410.7
2017-Oct-14 03:29N 36°16' W 008°60'1410.3
2017-Oct-14 02:08N 36°30' W 009°04'210.5
2017-Oct-14 01:56N 36°31' W 009°06'610.9
2017-Oct-14 01:23N 36°33' W 009°13'410.5
2017-Oct-14 01:00N 36°35' W 009°17'610.7
2017-Oct-14 00:27N 36°39' W 009°22'510.5
2017-Oct-14 00:00N 36°43' W 009°26'510.2
2017-Oct-13 23:30N 36°47' W 009°30'1110.1
2017-Oct-13 22:25N 36°57' W 009°36'610.2
2017-Oct-13 21:50N 37°02' W 009°38'310.2
2017-Oct-13 21:30N 37°06' W 009°39'510.2
2017-Oct-13 21:00N 37°10' W 009°41'5 9.8
2017-Oct-13 20:30N 37°15' W 009°43'5 9.7
2017-Oct-13 20:00N 37°20' W 009°44'5 9.8
2017-Oct-13 19:30N 37°25' W 009°45'5 9.8
2017-Oct-13 19:00N 37°30' W 009°46'5 9.4
2017-Oct-13 18:30N 37°34' W 009°47'5 9.3
2017-Oct-13 17:59N 37°39' W 009°48'1610.1
2017-Oct-13 16:23N 37°55' W 009°52'410.2
2017-Oct-13 16:00N 37°59' W 009°54'510.0
2017-Oct-13 15:30N 38°03' W 009°55'510.0
2017-Oct-13 14:59N 38°08' W 009°56'5 9.9
2017-Oct-13 14:28N 38°13' W 009°58'510.0
2017-Oct-13 14:00N 38°18' W 009°60'510.0
2017-Oct-13 13:29N 38°23' W 010°02'510.0
2017-Oct-13 13:00N 38°28' W 010°03'510.0
2017-Oct-13 12:27N 38°33' W 010°04'510.1
2017-Oct-13 12:00N 38°37' W 010°05'510.2
2017-Oct-13 11:30N 38°42' W 010°06'5 9.9
2017-Oct-13 11:00N 38°47' W 010°07'510.0
2017-Oct-13 10:30N 38°52' W 010°07'510.2
2017-Oct-13 10:00N 38°58' W 010°07'510.0
2017-Oct-13 09:30N 39°03' W 010°07'5 9.9
2017-Oct-13 09:00N 39°07' W 010°06'510.0
2017-Oct-13 08:28N 39°13' W 010°06'5 9.9
2017-Oct-13 08:00N 39°17' W 010°06'  
Track history (hours):
 
Tides and Currents Weather Stations Pressure Air Temp Water Temp Dewpoint Dewpoint Depression Visibility Wind Speed Wind Dir Waves Ship Positions

Fehn Heaven

Last reported at 2017-Oct-23 02:23 UTC. Time now 2017-Oct-23 02:46 UTC.
Position N 39°23' W 009°47'.

Length 89 m; draft 3.6 m.

Type: Ship. MMSI: 305443000.

Date/timePositionNaut miles runAvg speedWind from/ knotsBaromVisibWave heightAir tempDewpointWater temp
2017-Oct-23 02:23N 39°23' W 009°47'2 6.3
2017-Oct-23 02:00N 39°20' W 009°47'3 6.3
2017-Oct-23 01:30N 39°17' W 009°48'4 7.4
2017-Oct-23 01:00N 39°14' W 009°48'3 6.9
2017-Oct-23 00:31N 39°10' W 009°49'3 6.6
2017-Oct-23 00:01N 39°07' W 009°50'4 7.5
2017-Oct-22 23:30N 39°03' W 009°50'3 6.6
2017-Oct-22 23:00N 38°60' W 009°50'3 6.7
2017-Oct-22 22:30N 38°57' W 009°50'3 6.1
2017-Oct-22 22:00N 38°54' W 009°51'3 6.0
2017-Oct-22 21:30N 38°51' W 009°51'3 5.8
2017-Oct-22 21:01N 38°48' W 009°51'3 5.8
2017-Oct-22 20:31N 38°45' W 009°51'2 5.0
2017-Oct-22 20:01N 38°42' W 009°50'2 4.9
2017-Oct-22 19:30N 38°40' W 009°49'2 4.6
2017-Oct-22 19:01N 38°38' W 009°49'2 4.4
2017-Oct-22 18:30N 38°36' W 009°49'2 4.4
2017-Oct-22 18:00N 38°33' W 009°48'2 4.2
2017-Oct-22 17:30N 38°31' W 009°48'2 4.2
2017-Oct-22 17:01N 38°29' W 009°48'2 4.0
2017-Oct-22 16:31N 38°27' W 009°47'2 3.9
2017-Oct-22 16:00N 38°25' W 009°47'2 4.3
2017-Oct-22 15:31N 38°23' W 009°46'2 4.4
2017-Oct-22 15:00N 38°21' W 009°46'2 4.3
2017-Oct-22 14:30N 38°19' W 009°45'2 4.4
2017-Oct-22 14:00N 38°17' W 009°44'2 4.4
2017-Oct-22 13:31N 38°15' W 009°42'2 4.1
2017-Oct-22 12:59N 38°13' W 009°41'2 4.4
2017-Oct-22 12:30N 38°11' W 009°40'2 4.6
2017-Oct-22 11:59N 38°09' W 009°40'2 4.7
2017-Oct-22 11:30N 38°07' W 009°39'5 4.8
2017-Oct-22 10:25N 38°01' W 009°38'2 4.7
2017-Oct-22 09:58N 37°59' W 009°38'2 4.7
2017-Oct-22 09:27N 37°57' W 009°38'5 4.7
2017-Oct-22 08:19N 37°52' W 009°36'1 4.8
2017-Oct-22 08:00N 37°50' W 009°36'2 4.7
2017-Oct-22 07:30N 37°48' W 009°35'2 4.3
2017-Oct-22 07:00N 37°46' W 009°35'5 4.2
2017-Oct-22 05:52N 37°41' W 009°34'2 4.2
2017-Oct-22 05:29N 37°40' W 009°33'2 3.8
2017-Oct-22 04:53N 37°38' W 009°32'  
2017-Oct-14 04:22N 36°06' W 008°58'611.1
2017-Oct-14 03:52N 36°12' W 008°59'410.7
2017-Oct-14 03:29N 36°16' W 008°60'1410.3
2017-Oct-14 02:08N 36°30' W 009°04'210.5
2017-Oct-14 01:56N 36°31' W 009°06'610.9
2017-Oct-14 01:23N 36°33' W 009°13'410.5
2017-Oct-14 01:00N 36°35' W 009°17'610.7
2017-Oct-14 00:27N 36°39' W 009°22'510.5
2017-Oct-14 00:00N 36°43' W 009°26'510.2
2017-Oct-13 23:30N 36°47' W 009°30'1110.1
2017-Oct-13 22:25N 36°57' W 009°36'610.2
2017-Oct-13 21:50N 37°02' W 009°38'310.2
2017-Oct-13 21:30N 37°06' W 009°39'510.2
2017-Oct-13 21:00N 37°10' W 009°41'5 9.8
2017-Oct-13 20:30N 37°15' W 009°43'5 9.7
2017-Oct-13 20:00N 37°20' W 009°44'5 9.8
2017-Oct-13 19:30N 37°25' W 009°45'5 9.8
2017-Oct-13 19:00N 37°30' W 009°46'5 9.4
2017-Oct-13 18:30N 37°34' W 009°47'5 9.3
2017-Oct-13 17:59N 37°39' W 009°48'1610.1
2017-Oct-13 16:23N 37°55' W 009°52'410.2
2017-Oct-13 16:00N 37°59' W 009°54'510.0
2017-Oct-13 15:30N 38°03' W 009°55'510.0
2017-Oct-13 14:59N 38°08' W 009°56'5 9.9
2017-Oct-13 14:28N 38°13' W 009°58'510.0
2017-Oct-13 14:00N 38°18' W 009°60'510.0
2017-Oct-13 13:29N 38°23' W 010°02'510.0
2017-Oct-13 13:00N 38°28' W 010°03'510.0
2017-Oct-13 12:27N 38°33' W 010°04'510.1
2017-Oct-13 12:00N 38°37' W 010°05'510.2
2017-Oct-13 11:30N 38°42' W 010°06'5 9.9
2017-Oct-13 11:00N 38°47' W 010°07'510.0
2017-Oct-13 10:30N 38°52' W 010°07'510.2
2017-Oct-13 10:00N 38°58' W 010°07'510.0
2017-Oct-13 09:30N 39°03' W 010°07'5 9.9
2017-Oct-13 09:00N 39°07' W 010°06'510.0
2017-Oct-13 08:28N 39°13' W 010°06'5 9.9
2017-Oct-13 08:00N 39°17' W 010°06'  

Dump ship's entire track history